Time;durP1;ratioP1;P1;durP2;ratioP2;P2;SDS_P1;SDS_P2;PMS_P1;PMS_P2;Temp;Humidity;BMP_temperature;BMP_pressure;BME280_temperature;BME280_humidity;BME280_pressure;Samples;Min_cycle;Max_cycle;Signal;HPM_P1;HPM_P2
2021/04/11 00:00:25;;;;;;;6.03;5.37;;;12.30;93.00;;;;;;5034449;28;20967;-66
2021/04/11 00:02:51;;;;;;;4.57;4.17;;;12.30;92.90;;;;;;5034769;28;20513;-66
2021/04/11 00:05:19;;;;;;;5.10;4.07;;;12.30;92.60;;;;;;5034770;28;20451;-66
2021/04/11 00:07:46;;;;;;;7.13;5.80;;;12.30;92.50;;;;;;5034722;28;20561;-66
2021/04/11 00:10:15;;;;;;;5.87;4.67;;;12.30;92.20;;;;;;5034690;28;20454;-65
2021/04/11 00:12:41;;;;;;;6.27;5.67;;;12.30;92.30;;;;;;5034414;28;20493;-65
2021/04/11 00:15:08;;;;;;;6.20;5.50;;;12.30;92.40;;;;;;5034619;28;20455;-65
2021/04/11 00:17:36;;;;;;;5.90;5.50;;;12.30;92.70;;;;;;5034654;28;20446;-65
2021/04/11 00:20:03;;;;;;;9.50;5.80;;;12.30;92.80;;;;;;5034497;28;20450;-65
2021/04/11 00:22:29;;;;;;;5.70;5.20;;;12.30;93.10;;;;;;5034443;28;20861;-65
2021/04/11 00:24:55;;;;;;;5.43;4.67;;;12.30;93.20;;;;;;5034479;28;20450;-65
2021/04/11 00:27:22;;;;;;;6.10;4.20;;;12.30;93.20;;;;;;5034271;28;20446;-65
2021/04/11 00:29:48;;;;;;;5.30;4.80;;;12.20;93.10;;;;;;5034406;28;20859;-65
2021/04/11 00:32:14;;;;;;;4.40;4.00;;;12.20;92.90;;;;;;5034239;28;20473;-65
2021/04/11 00:34:41;;;;;;;6.17;4.43;;;12.30;92.80;;;;;;5034343;28;20426;-65
2021/04/11 00:37:08;;;;;;;6.53;5.73;;;12.30;92.70;;;;;;5034175;28;20439;-65
2021/04/11 00:39:34;;;;;;;5.90;5.30;;;12.30;92.70;;;;;;5033922;28;20446;-65
2021/04/11 00:42:06;;;;;;;7.37;5.70;;;12.20;92.60;;;;;;5034060;28;20486;-65
2021/04/11 00:44:33;;;;;;;7.93;5.40;;;12.20;92.70;;;;;;5033609;28;20435;-65
2021/04/11 00:47:02;;;;;;;5.13;3.93;;;12.20;92.80;;;;;;5033990;28;20446;-65
2021/04/11 00:49:32;;;;;;;4.70;4.30;;;12.20;92.80;;;;;;5034041;28;20450;-65
2021/04/11 00:52:01;;;;;;;6.00;5.37;;;12.20;92.60;;;;;;5033943;28;20462;-66
2021/04/11 00:54:27;;;;;;;7.03;6.33;;;12.30;92.60;;;;;;5033668;28;20869;-65
2021/04/11 00:56:53;;;;;;;6.00;5.50;;;12.30;92.60;;;;;;5033902;28;20497;-65
2021/04/11 00:59:20;;;;;;;5.57;5.07;;;12.30;92.90;;;;;;5033609;28;20896;-65
2021/04/11 01:01:47;;;;;;;5.53;4.87;;;12.20;92.90;;;;;;5033301;28;21141;-66
2021/04/11 01:04:16;;;;;;;7.00;5.97;;;12.20;92.90;;;;;;5033709;28;20446;-66
2021/04/11 01:06:45;;;;;;;6.40;5.80;;;12.20;93.00;;;;;;5033706;28;20544;-65
2021/04/11 01:09:18;;;;;;;6.37;5.77;;;12.20;93.10;;;;;;5033632;28;20477;-65
2021/04/11 01:11:45;;;;;;;6.33;5.73;;;12.20;93.00;;;;;;5033442;28;20469;-67
2021/04/11 01:14:14;;;;;;;7.00;6.30;;;12.20;93.20;;;;;;5033676;28;20434;-65
2021/04/11 01:16:41;;;;;;;7.90;5.67;;;12.20;93.20;;;;;;5033248;28;20427;-65
2021/04/11 01:19:09;;;;;;;8.37;7.57;;;12.20;93.30;;;;;;5033455;28;20457;-65
2021/04/11 01:21:44;;;;;;;6.60;6.00;;;12.20;93.40;;;;;;5033365;28;20474;-67
2021/04/11 01:24:17;;;;;;;6.17;5.43;;;12.20;93.40;;;;;;5033240;28;20923;-65
2021/04/11 01:26:46;;;;;;;5.43;5.00;;;12.20;93.40;;;;;;5033120;28;20927;-65
2021/04/11 01:29:13;;;;;;;5.77;5.30;;;12.30;93.40;;;;;;5033347;28;20450;-65
2021/04/11 01:31:40;;;;;;;7.03;6.33;;;12.20;93.60;;;;;;5032964;28;20789;-66
2021/04/11 01:34:08;;;;;;;8.13;6.03;;;12.20;94.00;;;;;;5032953;28;20446;-65
2021/04/11 01:36:37;;;;;;;11.40;7.33;;;12.10;94.40;;;;;;5033232;28;20446;-65
2021/04/11 01:39:10;;;;;;;7.63;6.87;;;12.10;95.00;;;;;;5033278;28;20449;-65
2021/04/11 01:41:39;;;;;;;14.20;11.00;;;12.00;95.70;;;;;;5033159;28;20474;-67
2021/04/11 01:44:08;;;;;;;16.60;13.70;;;11.80;95.80;;;;;;5033271;28;20450;-65
2021/04/11 01:46:35;;;;;;;17.40;15.70;;;11.50;95.30;;;;;;5033138;28;20458;-65
2021/04/11 01:49:01;;;;;;;18.93;16.93;;;11.40;94.50;;;;;;5033182;28;20458;-65
2021/04/11 01:51:33;;;;;;;17.00;15.30;;;11.20;93.80;;;;;;5033879;28;20458;-65
2021/04/11 01:54:01;;;;;;;17.33;15.60;;;11.10;94.00;;;;;;5033105;28;20480;-65
2021/04/11 01:56:28;;;;;;;16.83;15.03;;;10.90;93.80;;;;;;5035373;28;20966;-65
2021/04/11 01:58:54;;;;;;;15.00;13.47;;;10.80;94.00;;;;;;5037106;28;20524;-65
2021/04/11 02:01:24;;;;;;;14.00;12.60;;;10.90;94.10;;;;;;5037011;28;20482;-65
2021/04/11 02:03:55;;;;;;;13.83;12.43;;;10.90;93.70;;;;;;5036978;28;20477;-65
2021/04/11 02:06:22;;;;;;;14.13;12.70;;;10.80;93.20;;;;;;5036599;28;20962;-65
2021/04/11 02:08:53;;;;;;;13.63;12.30;;;10.80;93.20;;;;;;5036908;28;20598;-65
2021/04/11 02:11:19;;;;;;;13.00;11.73;;;10.60;93.00;;;;;;5036865;28;20427;-65
2021/04/11 02:13:46;;;;;;;12.80;11.57;;;10.60;93.20;;;;;;5036408;28;20486;-64
2021/04/11 02:16:14;;;;;;;13.87;12.57;;;10.40;93.30;;;;;;5036775;28;20442;-65
2021/04/11 02:18:43;;;;;;;13.93;12.63;;;10.40;93.40;;;;;;5036734;28;20447;-65
2021/04/11 02:21:15;;;;;;;13.93;12.60;;;10.30;93.30;;;;;;5036791;28;20486;-65
2021/04/11 02:23:41;;;;;;;11.30;10.30;;;10.20;93.40;;;;;;5036249;28;20823;-65
2021/04/11 02:26:10;;;;;;;11.17;10.03;;;10.10;93.40;;;;;;5036793;28;20461;-65
2021/04/11 02:28:37;;;;;;;9.97;9.10;;;10.00;93.40;;;;;;5036762;28;20457;-65
2021/04/11 02:31:19;;;;;;;10.37;9.47;;;10.00;93.50;;;;;;5036570;28;20793;-65
2021/04/11 02:34:02;;;;;;;9.43;8.53;;;10.00;93.50;;;;;;5036467;28;20528;-65
2021/04/11 02:36:34;;;;;;;12.83;9.17;;;9.80;94.10;;;;;;5036582;28;20461;-65
2021/04/11 02:39:02;;;;;;;9.83;8.93;;;9.70;94.30;;;;;;5036534;28;20431;-64
2021/04/11 02:41:28;;;;;;;9.23;8.27;;;9.60;94.50;;;;;;5036025;28;20478;-64
2021/04/11 02:43:56;;;;;;;9.07;8.27;;;9.60;94.70;;;;;;5035824;28;20836;-64
2021/04/11 02:46:24;;;;;;;9.70;8.70;;;9.50;94.90;;;;;;5035889;28;20935;-64
2021/04/11 02:48:54;;;;;;;8.60;7.80;;;9.50;94.90;;;;;;5035900;28;20521;-64
2021/04/11 02:51:23;;;;;;;8.43;7.63;;;9.50;94.70;;;;;;5036166;28;20433;-64
2021/04/11 02:53:52;;;;;;;8.60;7.90;;;9.60;94.50;;;;;;5035981;28;20482;-64
2021/04/11 02:56:18;;;;;;;7.30;6.70;;;9.60;94.40;;;;;;5035678;28;20446;-64
2021/04/11 02:58:44;;;;;;;8.83;8.03;;;9.50;94.30;;;;;;5035947;28;20442;-64
2021/04/11 03:01:14;;;;;;;6.70;6.07;;;9.40;94.40;;;;;;5035696;28;20485;-64
2021/04/11 03:03:40;;;;;;;6.30;5.80;;;9.40;94.50;;;;;;5035800;28;20847;-65
2021/04/11 03:06:13;;;;;;;6.67;6.07;;;9.40;94.20;;;;;;5035833;28;20454;-65
2021/04/11 03:08:43;;;;;;;5.30;4.90;;;9.30;94.20;;;;;;5035170;28;20437;-64
2021/04/11 03:11:18;;;;;;;5.20;4.80;;;9.10;93.90;;;;;;5035721;28;20431;-65
2021/04/11 03:13:47;;;;;;;5.90;5.40;;;9.10;94.00;;;;;;5035271;28;21025;-66
2021/04/11 03:16:13;;;;;;;5.50;5.07;;;9.00;94.10;;;;;;5035548;28;20451;-65
2021/04/11 03:18:41;;;;;;;5.37;4.87;;;9.00;94.00;;;;;;5035380;28;20431;-65
2021/04/11 03:21:08;;;;;;;4.47;4.17;;;9.00;93.50;;;;;;5035481;28;20482;-65
2021/04/11 03:23:35;;;;;;;5.30;4.90;;;8.90;93.90;;;;;;5035465;28;20462;-65
2021/04/11 03:26:08;;;;;;;4.50;4.20;;;8.80;93.60;;;;;;5035439;28;20450;-65
2021/04/11 03:28:47;;;;;;;4.90;4.50;;;8.70;93.80;;;;;;5035631;28;20438;-65
2021/04/11 03:31:19;;;;;;;5.00;4.60;;;8.60;94.10;;;;;;5035442;28;20433;-64
2021/04/11 03:33:48;;;;;;;4.90;4.50;;;8.60;94.10;;;;;;5035308;28;20529;-65
2021/04/11 03:36:17;;;;;;;4.33;4.00;;;8.60;94.10;;;;;;5035249;28;20813;-64
2021/04/11 03:38:45;;;;;;;11.53;4.93;;;8.70;94.10;;;;;;5035255;28;20455;-64
2021/04/11 03:41:13;;;;;;;4.70;4.30;;;8.60;93.80;;;;;;5034791;28;20478;-65
2021/04/11 03:43:45;;;;;;;4.00;3.70;;;8.50;93.70;;;;;;5035048;28;20814;-64
2021/04/11 03:46:17;;;;;;;6.40;4.07;;;8.40;93.60;;;;;;5035095;28;20441;-64
2021/04/11 03:48:47;;;;;;;3.90;3.60;;;8.40;93.50;;;;;;5034823;28;20557;-64
2021/04/11 03:51:20;;;;;;;4.47;4.07;;;8.40;93.40;;;;;;5035035;28;20442;-64
2021/04/11 03:53:51;;;;;;;3.40;3.10;;;8.30;93.40;;;;;;5034638;28;20979;-64
2021/04/11 03:56:25;;;;;;;3.47;3.20;;;8.30;93.20;;;;;;5034937;28;20518;-64
2021/04/11 03:58:55;;;;;;;3.77;3.50;;;8.30;92.90;;;;;;5034854;28;20423;-64
2021/04/11 04:01:26;;;;;;;4.70;4.30;;;8.10;92.80;;;;;;5034783;28;20477;-64
2021/04/11 04:03:56;;;;;;;3.80;3.50;;;8.10;92.70;;;;;;5034733;28;20999;-65
2021/04/11 04:06:28;;;;;;;4.40;4.10;;;8.10;92.90;;;;;;5034767;28;20430;-65
2021/04/11 04:08:54;;;;;;;4.43;4.03;;;8.10;92.90;;;;;;5034688;28;20435;-65
2021/04/11 04:11:41;;;;;;;4.50;4.10;;;8.00;92.90;;;;;;5034655;28;20458;-65
2021/04/11 04:14:22;;;;;;;4.50;4.10;;;8.00;92.80;;;;;;5034630;28;20933;-65
2021/04/11 04:17:00;;;;;;;4.97;4.57;;;8.00;93.00;;;;;;5035098;28;20430;-65
2021/04/11 04:19:46;;;;;;;5.00;4.60;;;7.90;92.50;;;;;;5057921;22;20494;-76
2021/04/11 04:22:35;;;;;;;5.50;5.00;;;7.90;92.80;;;;;;5034476;28;20466;-76
2021/04/11 04:25:10;;;;;;;5.23;4.83;;;7.90;92.70;;;;;;5034116;28;20896;-77
2021/04/11 04:27:50;;;;;;;4.73;4.33;;;7.80;92.70;;;;;;5034092;28;20457;-76
2021/04/11 04:30:21;;;;;;;6.07;5.47;;;7.80;92.90;;;;;;5034328;28;20473;-76
2021/04/11 04:33:06;;;;;;;6.27;5.67;;;7.80;92.70;;;;;;5034589;28;20473;-75
2021/04/11 04:35:40;;;;;;;5.97;5.47;;;7.60;92.30;;;;;;5034252;28;20435;-76
2021/04/11 04:38:16;;;;;;;6.07;5.57;;;7.60;92.80;;;;;;5034397;28;20426;-76
2021/04/11 04:40:53;;;;;;;5.20;4.80;;;7.50;93.10;;;;;;5034027;28;20437;-76
2021/04/11 04:43:26;;;;;;;5.10;4.67;;;7.50;93.30;;;;;;5034066;28;20426;-76
2021/04/11 04:46:06;;;;;;;6.77;6.17;;;7.50;93.40;;;;;;5033806;28;20427;-76
2021/04/11 04:48:37;;;;;;;6.40;5.90;;;7.40;92.90;;;;;;5034007;28;20466;-76
2021/04/11 04:51:08;;;;;;;7.60;6.90;;;7.30;93.20;;;;;;5033754;28;20906;-76
2021/04/11 04:53:39;;;;;;;7.73;6.90;;;7.10;93.60;;;;;;5033905;28;20431;-76
2021/04/11 04:56:10;;;;;;;7.90;7.10;;;6.90;93.70;;;;;;5033862;28;20435;-76
2021/04/11 04:58:41;;;;;;;8.17;7.47;;;6.70;93.80;;;;;;5033561;28;20471;-76
2021/04/11 05:01:14;;;;;;;8.27;7.47;;;6.60;94.50;;;;;;5033724;28;20469;-76
2021/04/11 05:03:43;;;;;;;7.63;6.93;;;6.70;94.70;;;;;;5033751;28;20436;-76
2021/04/11 05:06:12;;;;;;;9.00;8.20;;;6.70;94.90;;;;;;5033584;28;20442;-76
2021/04/11 05:08:44;;;;;;;9.30;8.50;;;6.70;95.10;;;;;;5033574;28;20470;-76
2021/04/11 05:11:17;;;;;;;11.43;10.30;;;6.70;95.00;;;;;;5033861;28;20427;-76
2021/04/11 05:13:48;;;;;;;11.80;10.63;;;6.70;94.60;;;;;;5033638;28;20911;-76
2021/04/11 05:16:20;;;;;;;13.30;10.40;;;6.60;95.00;;;;;;5033653;28;20438;-76
2021/04/11 05:18:53;;;;;;;12.60;11.37;;;6.50;94.80;;;;;;5033456;28;20474;-75
2021/04/11 05:21:21;;;;;;;11.40;10.20;;;6.30;94.90;;;;;;5033451;28;20580;-76
2021/04/11 05:23:51;;;;;;;12.17;10.87;;;6.10;95.10;;;;;;5033456;28;20449;-76
2021/04/11 05:26:22;;;;;;;12.83;11.53;;;6.00;95.60;;;;;;5034030;28;20422;-76
2021/04/11 05:28:54;;;;;;;12.87;11.50;;;5.90;95.90;;;;;;5033378;28;20470;-76
2021/04/11 05:31:24;;;;;;;12.80;11.50;;;6.00;96.20;;;;;;5038329;28;20525;-76
2021/04/11 05:33:54;;;;;;;12.80;11.40;;;6.00;96.10;;;;;;5040015;28;20426;-76
2021/04/11 05:36:32;;;;;;;12.77;11.43;;;6.10;96.10;;;;;;5039992;28;20457;-77
2021/04/11 05:39:07;;;;;;;12.97;11.53;;;6.10;95.90;;;;;;5039901;28;20477;-76
2021/04/11 05:41:41;;;;;;;12.90;10.17;;;6.10;96.20;;;;;;5039937;28;20461;-76
2021/04/11 05:44:16;;;;;;;11.03;9.70;;;6.20;96.00;;;;;;5039936;28;20434;-76
2021/04/11 05:46:48;;;;;;;11.30;10.30;;;6.30;95.50;;;;;;5039914;28;20432;-76
2021/04/11 05:49:19;;;;;;;9.97;8.97;;;6.20;95.20;;;;;;5039923;28;20826;-76
2021/04/11 05:51:52;;;;;;;10.20;9.20;;;6.20;95.30;;;;;;5040385;28;20418;-76
2021/04/11 05:54:21;;;;;;;9.13;8.10;;;6.20;95.50;;;;;;5039865;28;20442;-76
2021/04/11 05:56:51;;;;;;;10.53;8.30;;;6.20;95.30;;;;;;5039782;28;20446;-76
2021/04/11 05:59:23;;;;;;;9.10;8.20;;;6.20;95.50;;;;;;5039654;28;20477;-75
2021/04/11 06:01:52;;;;;;;8.90;8.00;;;6.40;95.60;;;;;;5039743;28;20462;-75
2021/04/11 06:04:24;;;;;;;7.80;7.10;;;6.40;95.40;;;;;;5039818;28;20450;-75
2021/04/11 06:06:56;;;;;;;8.87;7.37;;;6.40;95.10;;;;;;5039755;28;20434;-76
2021/04/11 06:09:28;;;;;;;8.40;7.30;;;6.40;94.80;;;;;;5039658;28;20477;-76
2021/04/11 06:12:03;;;;;;;10.10;8.30;;;6.50;95.00;;;;;;5039771;28;20465;-76
2021/04/11 06:14:36;;;;;;;11.47;9.30;;;6.60;94.70;;;;;;5039446;28;20440;-76
2021/04/11 06:17:08;;;;;;;13.67;10.23;;;6.70;94.70;;;;;;5039710;28;20430;-76
2021/04/11 06:19:35;;;;;;;13.20;11.07;;;6.90;94.70;;;;;;5039529;28;20469;-76
2021/04/11 06:22:08;;;;;;;16.67;12.70;;;6.90;93.90;;;;;;5039537;28;20485;-76
2021/04/11 06:24:43;;;;;;;17.43;13.30;;;6.90;93.20;;;;;;5039680;28;20481;-76
2021/04/11 06:27:31;;;;;;;19.07;14.90;;;6.90;93.00;;;;;;5039668;28;20430;-76
2021/04/11 06:30:06;;;;;;;18.87;15.70;;;6.90;93.00;;;;;;5037084;28;20482;-76
2021/04/11 06:32:36;;;;;;;20.03;15.10;;;6.80;93.10;;;;;;5039631;28;20436;-76
2021/04/11 06:35:07;;;;;;;16.27;12.70;;;6.70;93.00;;;;;;5039592;28;20446;-76
2021/04/11 06:37:36;;;;;;;20.30;14.97;;;6.70;93.30;;;;;;5039552;28;20426;-76
2021/04/11 06:40:11;;;;;;;14.10;12.30;;;6.80;93.30;;;;;;5039415;28;20473;-76
2021/04/11 06:42:53;;;;;;;12.10;10.83;;;6.70;93.00;;;;;;5036156;28;20465;-76
2021/04/11 06:45:29;;;;;;;11.67;10.47;;;6.70;93.60;;;;;;5036323;28;20430;-76
2021/04/11 06:48:25;;;;;;;12.87;9.57;;;6.90;93.60;;;;;;5035990;28;20449;-76
2021/04/11 06:51:30;;;;;;;10.17;9.00;;;6.80;93.20;;;;;;5036229;28;20489;-76
2021/04/11 06:54:31;;;;;;;9.93;8.70;;;6.90;93.20;;;;;;5036236;28;20427;-76
2021/04/11 06:57:13;;;;;;;10.67;8.53;;;6.80;93.20;;;;;;5035884;28;20923;-75
2021/04/11 07:00:16;;;;;;;9.73;7.73;;;6.80;93.30;;;;;;5035994;28;20550;-75
2021/04/11 07:03:25;;;;;;;8.90;7.57;;;6.90;93.40;;;;;;5030411;28;20490;-75
2021/04/11 07:06:32;;;;;;;11.30;8.33;;;6.80;93.40;;;;;;5035903;28;20434;-75
2021/04/11 07:09:20;;;;;;;8.37;6.93;;;6.80;93.70;;;;;;5035856;28;20478;-75
2021/04/11 07:12:34;;;;;;;8.00;7.20;;;6.70;93.30;;;;;;5033152;28;20454;-74
2021/04/11 07:15:20;;;;;;;8.37;7.43;;;6.70;93.70;;;;;;4979881;28;20445;-74
2021/04/11 07:18:14;;;;;;;8.87;7.83;;;6.70;93.90;;;;;;5035472;28;20459;-75
2021/04/11 07:21:08;;;;;;;8.13;7.33;;;6.80;94.10;;;;;;5035771;28;20426;-74
2021/04/11 07:24:09;;;;;;;8.83;7.20;;;6.80;94.00;;;;;;5035662;28;20500;-74
2021/04/11 07:26:44;;;;;;;7.97;7.27;;;6.90;93.90;;;;;;5035590;28;20800;-74
2021/04/11 07:29:29;;;;;;;7.70;7.10;;;7.00;93.80;;;;;;5035540;28;20458;-74
2021/04/11 07:32:29;;;;;;;8.57;7.10;;;7.00;93.30;;;;;;5035348;28;20879;-74
2021/04/11 07:35:09;;;;;;;7.30;6.70;;;7.00;93.50;;;;;;5035195;28;20923;-74
2021/04/11 07:37:55;;;;;;;7.93;7.20;;;7.10;93.70;;;;;;5035452;28;20427;-74
2021/04/11 07:40:27;;;;;;;6.57;6.07;;;7.10;93.10;;;;;;5035536;28;20469;-74
2021/04/11 07:43:10;;;;;;;6.53;5.93;;;7.10;92.90;;;;;;5035202;28;20828;-74
2021/04/11 07:46:01;;;;;;;6.00;5.50;;;7.10;92.80;;;;;;5035158;28;20431;-75
2021/04/11 07:48:49;;;;;;;5.37;4.97;;;7.10;92.90;;;;;;5035115;28;20470;-75
2021/04/11 07:51:48;;;;;;;6.80;4.87;;;7.10;93.00;;;;;;5035071;28;20442;-75
2021/04/11 07:54:52;;;;;;;5.37;4.87;;;7.10;93.10;;;;;;5034622;28;20800;-73
2021/04/11 07:58:06;;;;;;;6.00;5.40;;;7.10;92.70;;;;;;5035221;28;20442;-75
2021/04/11 08:00:53;;;;;;;5.03;4.53;;;7.10;92.90;;;;;;5034872;28;20437;-74
2021/04/11 08:03:48;;;;;;;4.40;4.10;;;7.00;92.70;;;;;;5034746;28;20593;-75
2021/04/11 08:06:50;;;;;;;4.07;3.77;;;7.10;93.00;;;;;;5034810;28;20435;-75
2021/04/11 08:09:21;;;;;;;4.23;3.93;;;7.10;92.70;;;;;;5024049;28;20470;-74
2021/04/11 08:12:33;;;;;;;3.37;3.07;;;7.20;92.60;;;;;;5034729;28;20431;-74
2021/04/11 08:15:10;;;;;;;3.10;2.90;;;7.20;92.50;;;;;;5034373;28;20437;-75
2021/04/11 08:17:58;;;;;;;3.47;3.17;;;7.30;92.20;;;;;;5034312;28;20922;-75
2021/04/11 08:20:42;;;;;;;4.00;3.70;;;7.30;91.90;;;;;;5034132;28;20474;-73
2021/04/11 08:23:52;;;;;;;3.40;3.20;;;7.30;92.20;;;;;;5034460;28;20474;-73
2021/04/11 08:27:00;;;;;;;3.10;2.90;;;7.40;92.20;;;;;;5035485;28;20878;-73
2021/04/11 08:29:43;;;;;;;3.43;3.13;;;7.50;92.10;;;;;;5034819;28;20466;-73
2021/04/11 08:32:36;;;;;;;3.10;2.90;;;7.50;91.80;;;;;;5034353;28;20518;-73
2021/04/11 08:35:38;;;;;;;2.77;2.57;;;7.50;91.80;;;;;;5033912;28;20904;-73
2021/04/11 08:38:36;;;;;;;3.40;3.20;;;7.50;91.90;;;;;;5033858;28;20931;-73
2021/04/11 08:41:21;;;;;;;2.47;2.37;;;7.50;91.90;;;;;;5033740;28;20912;-73
2021/04/11 08:44:01;;;;;;;2.80;2.50;;;7.60;92.10;;;;;;5034237;28;20447;-73
2021/04/11 08:46:43;;;;;;;2.90;2.70;;;7.60;91.50;;;;;;5034110;28;20441;-73
2021/04/11 08:49:15;;;;;;;2.50;2.40;;;7.50;91.70;;;;;;5033988;28;20470;-73
2021/04/11 08:51:50;;;;;;;2.20;2.10;;;7.50;91.20;;;;;;5033658;28;20434;-75
2021/04/11 08:54:25;;;;;;;1.50;1.50;;;7.50;91.60;;;;;;5033591;28;20859;-73
2021/04/11 08:57:00;;;;;;;2.10;1.90;;;7.60;91.30;;;;;;5034028;28;20438;-73
2021/04/11 08:59:48;;;;;;;2.30;2.20;;;7.60;91.00;;;;;;5033781;28;20552;-73
2021/04/11 09:02:32;;;;;;;1.73;1.63;;;7.60;91.10;;;;;;5033699;28;20477;-73
2021/04/11 09:05:08;;;;;;;2.17;2.07;;;7.60;91.30;;;;;;5033095;28;20442;-74
2021/04/11 09:07:48;;;;;;;1.93;1.83;;;7.70;91.00;;;;;;5033541;28;20800;-73
2021/04/11 09:10:28;;;;;;;2.30;2.20;;;7.70;90.70;;;;;;5033600;28;20535;-73
2021/04/11 09:13:02;;;;;;;3.03;2.47;;;7.70;90.80;;;;;;5033655;28;20437;-73
2021/04/11 09:15:37;;;;;;;2.40;2.30;;;7.70;90.80;;;;;;5033624;28;20804;-73
2021/04/11 09:18:20;;;;;;;3.20;3.00;;;7.60;91.20;;;;;;5033246;28;20843;-73
2021/04/11 09:21:02;;;;;;;3.77;3.47;;;7.60;91.70;;;;;;5033797;28;20419;-73
2021/04/11 09:23:44;;;;;;;3.43;3.13;;;7.80;91.90;;;;;;5033519;28;20470;-73
2021/04/11 09:26:25;;;;;;;3.73;3.30;;;7.90;91.80;;;;;;5033566;28;20438;-73
2021/04/11 09:29:03;;;;;;;4.00;3.70;;;7.90;91.20;;;;;;5033382;28;20458;-73
2021/04/11 09:31:36;;;;;;;4.30;3.90;;;7.90;91.00;;;;;;5033361;28;20437;-73
2021/04/11 09:34:39;;;;;;;3.23;3.03;;;7.90;91.30;;;;;;5033373;28;20492;-73
2021/04/11 09:37:20;;;;;;;3.37;3.10;;;8.00;91.40;;;;;;5033385;28;20423;-74
2021/04/11 09:40:10;;;;;;;3.37;3.17;;;8.00;91.40;;;;;;5033333;28;20463;-73
2021/04/11 09:42:59;;;;;;;3.53;3.30;;;8.10;91.50;;;;;;5032929;28;20473;-73
2021/04/11 09:45:44;;;;;;;3.13;2.93;;;8.20;91.40;;;;;;5033329;28;20435;-74
2021/04/11 09:48:31;;;;;;;3.87;3.00;;;8.20;91.60;;;;;;5033227;28;20465;-73
2021/04/11 09:51:13;;;;;;;4.67;3.33;;;8.20;90.90;;;;;;5033254;28;20438;-73
2021/04/11 09:54:04;;;;;;;3.13;2.93;;;8.30;90.60;;;;;;5033260;28;20435;-74
2021/04/11 09:56:40;;;;;;;2.90;2.70;;;8.30;90.30;;;;;;5032879;28;20461;-74
2021/04/11 09:59:32;;;;;;;2.30;2.20;;;8.50;90.50;;;;;;5033149;28;20476;-74
2021/04/11 10:02:09;;;;;;;2.50;2.30;;;8.60;89.60;;;;;;5033099;28;20659;-74
2021/04/11 10:04:48;;;;;;;2.40;2.30;;;8.60;89.00;;;;;;5032821;28;20964;-74
2021/04/11 10:07:35;;;;;;;2.73;2.53;;;8.70;89.40;;;;;;5033156;28;20461;-73
2021/04/11 10:10:26;;;;;;;1.90;1.80;;;8.60;88.00;;;;;;5020104;28;20844;-73
2021/04/11 10:13:29;;;;;;;2.00;1.90;;;8.40;87.60;;;;;;5033044;28;20423;-74
2021/04/11 10:16:06;;;;;;;1.80;1.70;;;8.40;88.20;;;;;;5033084;28;20493;-74
2021/04/11 10:19:10;;;;;;;2.90;1.90;;;8.40;89.10;;;;;;5036548;28;20485;-74
2021/04/11 10:21:44;;;;;;;2.10;2.00;;;8.30;88.70;;;;;;5022328;22;20494;-64
2021/04/11 10:24:26;;;;;;;1.73;1.63;;;8.40;89.80;;;;;;5036497;28;20822;-64
2021/04/11 10:27:03;;;;;;;1.43;1.33;;;8.50;89.50;;;;;;5036550;28;20403;-66
2021/04/11 10:29:31;;;;;;;2.07;1.97;;;8.50;88.00;;;;;;5036690;28;20445;-66
2021/04/11 10:32:06;;;;;;;1.47;1.20;;;8.50;87.90;;;;;;5036587;28;20470;-66
2021/04/11 10:34:39;;;;;;;1.17;1.17;;;8.40;87.30;;;;;;5036572;28;20434;-64
2021/04/11 10:37:17;;;;;;;1.97;1.40;;;8.30;86.50;;;;;;5036797;28;20440;-64
2021/04/11 10:39:57;;;;;;;1.57;1.47;;;8.30;88.20;;;;;;5036500;28;20437;-65
2021/04/11 10:42:41;;;;;;;1.90;1.80;;;8.40;88.50;;;;;;5036037;28;20523;-64
2021/04/11 10:45:20;;;;;;;1.50;1.40;;;8.40;86.80;;;;;;5036029;28;20770;-64
2021/04/11 10:48:16;;;;;;;1.40;1.27;;;8.30;86.70;;;;;;5036266;28;20430;-66
2021/04/11 10:50:51;;;;;;;2.07;1.87;;;8.30;88.10;;;;;;5036145;28;20450;-65
2021/04/11 10:53:43;;;;;;;1.47;1.37;;;8.20;87.30;;;;;;5036261;28;20424;-64
2021/04/11 10:56:27;;;;;;;1.40;1.30;;;8.10;87.60;;;;;;5035616;28;20805;-64
2021/04/11 10:59:18;;;;;;;1.70;1.60;;;8.00;88.90;;;;;;5036670;28;20438;-64
2021/04/11 11:02:18;;;;;;;2.07;1.87;;;8.10;88.80;;;;;;5035651;28;20506;-64
2021/04/11 11:05:16;;;;;;;1.50;1.50;;;8.10;89.60;;;;;;5035689;28;20441;-64
2021/04/11 11:08:18;;;;;;;1.53;1.43;;;8.10;87.20;;;;;;5035907;28;20456;-64
2021/04/11 11:10:54;;;;;;;1.60;1.50;;;8.10;88.40;;;;;;5035844;28;20422;-65
2021/04/11 11:13:49;;;;;;;2.60;1.73;;;8.10;88.20;;;;;;5035900;28;20818;-64
2021/04/11 11:16:26;;;;;;;1.60;1.50;;;8.20;89.50;;;;;;5035866;28;20450;-72
2021/04/11 11:19:27;;;;;;;1.47;1.40;;;8.40;89.10;;;;;;5035805;28;20437;-72
2021/04/11 11:22:16;;;;;;;2.00;1.90;;;8.50;87.20;;;;;;5032594;28;20522;-71
2021/04/11 11:24:58;;;;;;;1.90;1.67;;;8.60;87.50;;;;;;5035714;28;20446;-64
2021/04/11 11:27:41;;;;;;;1.90;1.50;;;8.80;87.10;;;;;;5035527;28;20426;-64
2021/04/11 11:30:42;;;;;;;1.60;1.50;;;8.80;87.20;;;;;;5035262;28;20430;-64
2021/04/11 11:33:21;;;;;;;1.90;1.40;;;8.90;86.90;;;;;;5030315;28;20817;-64
2021/04/11 11:35:54;;;;;;;1.47;1.37;;;9.10;86.70;;;;;;5035522;28;20434;-64
2021/04/11 11:38:26;;;;;;;1.97;1.83;;;9.10;84.20;;;;;;5035368;28;20489;-64
2021/04/11 11:41:09;;;;;;;2.00;1.50;;;9.10;85.00;;;;;;5035248;28;20449;-65
2021/04/11 11:43:42;;;;;;;2.40;2.10;;;9.20;85.30;;;;;;5035199;28;20554;-64
2021/04/11 11:46:20;;;;;;;2.03;1.93;;;9.20;84.90;;;;;;5035225;28;20426;-64
2021/04/11 11:48:57;;;;;;;1.80;1.70;;;9.40;85.80;;;;;;5035212;28;20489;-64
2021/04/11 11:51:36;;;;;;;2.07;1.77;;;9.70;86.70;;;;;;5035096;28;20470;-65
2021/04/11 11:54:08;;;;;;;3.10;2.80;;;10.00;85.20;;;;;;5035149;28;20481;-64
2021/04/11 11:56:38;;;;;;;13.90;12.70;;;10.30;84.50;;;;;;5034755;28;20427;-64
2021/04/11 11:59:12;;;;;;;44.03;39.47;;;10.40;82.20;;;;;;5034957;28;20434;-65
2021/04/11 12:01:46;;;;;;;17.67;15.07;;;10.40;80.20;;;;;;5034487;28;20466;-65
2021/04/11 12:04:36;;;;;;;28.10;19.90;;;10.40;79.20;;;;;;5034786;28;20437;-65
2021/04/11 12:07:07;;;;;;;7.73;5.00;;;10.10;78.90;;;;;;5034889;28;20435;-69
2021/04/11 12:09:39;;;;;;;2.93;2.73;;;10.00;79.60;;;;;;5034757;28;20508;-64
2021/04/11 12:12:11;;;;;;;41.70;37.90;;;9.90;81.70;;;;;;5034506;28;20458;-64
2021/04/11 12:14:44;;;;;;;195.90;158.80;;;9.80;81.40;;;;;;5034694;28;20433;-64
2021/04/11 12:17:18;;;;;;;80.63;60.97;;;9.70;81.90;;;;;;5034402;28;20915;-64
2021/04/11 12:19:55;;;;;;;63.47;48.47;;;9.60;82.40;;;;;;5035465;28;20435;-64
2021/04/11 12:22:30;;;;;;;108.43;81.20;;;9.50;83.00;;;;;;5034529;28;20498;-64
2021/04/11 12:25:00;;;;;;;138.73;94.67;;;9.50;83.10;;;;;;5034709;28;20437;-65
2021/04/11 12:27:30;;;;;;;7.30;6.60;;;9.60;83.80;;;;;;5035497;28;20449;-65
2021/04/11 12:29:58;;;;;;;6.03;4.40;;;9.50;81.80;;;;;;5034606;28;20446;-65
2021/04/11 12:32:34;;;;;;;5.10;3.47;;;9.60;83.00;;;;;;5034336;28;20462;-64
2021/04/11 12:35:12;;;;;;;2.73;2.37;;;9.60;83.10;;;;;;5034364;28;20419;-64
2021/04/11 12:37:43;;;;;;;2.60;2.40;;;9.70;83.00;;;;;;5034272;28;20799;-64
2021/04/11 12:40:22;;;;;;;4.53;2.87;;;9.70;84.10;;;;;;5033471;28;20435;-64
2021/04/11 12:42:56;;;;;;;3.30;2.33;;;9.70;83.50;;;;;;5034063;28;20490;-64
2021/04/11 12:45:29;;;;;;;4.60;3.00;;;9.80;82.10;;;;;;5034164;28;20453;-65
2021/04/11 12:48:06;;;;;;;3.83;2.70;;;10.00;81.00;;;;;;5034129;28;20434;-65
2021/04/11 12:50:35;;;;;;;4.13;2.00;;;10.30;81.00;;;;;;5034571;28;20433;-65
2021/04/11 12:53:11;;;;;;;3.60;3.03;;;10.60;81.10;;;;;;5033863;28;20462;-65
2021/04/11 12:55:43;;;;;;;4.63;2.60;;;10.90;79.50;;;;;;5033688;28;20928;-66
2021/04/11 12:58:21;;;;;;;2.50;2.10;;;11.20;79.30;;;;;;5034183;28;20443;-65
2021/04/11 13:00:54;;;;;;;2.80;2.50;;;11.50;76.80;;;;;;5033865;28;20442;-67
2021/04/11 13:03:24;;;;;;;3.43;2.80;;;11.70;75.50;;;;;;5033783;28;20470;-65
2021/04/11 13:05:54;;;;;;;2.90;2.40;;;11.80;75.60;;;;;;5033802;28;20431;-65
2021/04/11 13:08:27;;;;;;;2.67;2.13;;;12.00;74.50;;;;;;5034102;28;20447;-65
2021/04/11 13:11:04;;;;;;;1.83;1.70;;;11.80;71.30;;;;;;5033576;28;20954;-66
2021/04/11 13:13:37;;;;;;;2.90;1.97;;;11.80;71.00;;;;;;5033831;28;20908;-65
2021/04/11 13:16:12;;;;;;;2.47;1.60;;;11.50;70.30;;;;;;5033806;28;20423;-65
2021/04/11 13:18:46;;;;;;;1.73;1.47;;;11.10;70.90;;;;;;5033876;28;20488;-65
2021/04/11 13:21:23;;;;;;;1.73;1.40;;;10.90;71.40;;;;;;5033632;28;20485;-66
2021/04/11 13:23:56;;;;;;;1.27;1.17;;;10.60;71.90;;;;;;5033532;28;20461;-64
2021/04/11 13:26:27;;;;;;;1.90;1.50;;;10.40;71.60;;;;;;5033601;28;20466;-64
2021/04/11 13:29:05;;;;;;;1.20;1.10;;;10.20;73.20;;;;;;5033820;28;20518;-65
2021/04/11 13:31:54;;;;;;;1.70;1.30;;;10.00;74.00;;;;;;5033444;28;20466;-65
2021/04/11 13:34:27;;;;;;;1.80;1.33;;;9.90;75.30;;;;;;5033508;28;20442;-65
2021/04/11 13:36:55;;;;;;;1.67;1.57;;;9.80;76.20;;;;;;5033450;28;20434;-65
2021/04/11 13:39:26;;;;;;;1.60;1.50;;;9.70;76.90;;;;;;5033407;28;20497;-65